To NAV CANADA Home Page Login to a new session Search on AWWS site Feedback and Comments Disclaimer Vers la page française équivalente Tips FAQ What's new on the site To the Forecasts and Observations / NOTAM section To "File a Flight Plan" website Publications and other links Update of the User's profile FIC Telephone Numbers My Weather Data Folder Route Weather Data Regional Weather Data Local Weather Data To the Forecasts and Observations / NOTAM section
Request Generated 12/04/2016 at 22:22:48 UTC . Weather information available at that time is displayed.

METAR/TAF

EUREKA/NU    

METAR CWEU 042200Z 26016KT 6SM BLSN SKC M28/M32 A3028 RMK SLP258=
METAR CWEU 042100Z 25011G17KT 6SM BLSN SKC M28/M32 A3027 RMK SLP254=
METAR CWEU 042000Z 27012G17KT 6SM BLSN SKC M27/M31 A3025 RMK SLP248=

TAF CYEU 041738Z 0418/0502 ADVISORY OFFSITE 30010G20KT WS005/30020KT
P6SM SCT070 TEMPO 0418/0502 30015G25KT 6SM IC
RMK NXT FCST BY 050000Z=
Your time UTC time
Weather data provided by Environment Canada and NAV CANADA